Terminal Aerodrome Forecast
Issued by NWS

Home | Current Version | Previous Version | Graphics & Text | Print | Product List | Glossary On
Versions: 1 2 3 4 5 6 7 8 9 10 11 12 13 14 15 16 17 18 19
000
FTUS43 KGRB 242335
TAFRHI
TAF
KRHI 242335Z 2500/2524 04005KT P6SM SCT025 BKN030
      TEMPO 2500/2504 SCT012 BKN020
     FM250400 05002KT P6SM BKN015
     FM250800 03004KT 3SM BR SCT015 BKN035
      TEMPO 2508/2512 1SM BR
     FM252200 VRB03KT P6SM SCT070 BKN150=

USA.gov is the U.S. government's official web portal to all federal, state and local government web resources and services.